Time;durP1;ratioP1;P1;durP2;ratioP2;P2;SDS_P1;SDS_P2;PMS_P1;PMS_P2;Temp;Humidity;BMP_temperature;BMP_pressure;BME280_temperature;BME280_humidity;BME280_pressure;Samples;Min_cycle;Max_cycle;Signal;HPM_P1;HPM_P2
2022/09/12 00:01:12;;;;;;;;;;;;;;;11.79;76.61;100018.13;89408;1260;80675;-59
2022/09/12 00:03:24;;;;;;;;;;;;;;;11.76;76.68;100015.97;89408;1260;82345;-59
2022/09/12 00:05:31;;;;;;;;;;;;;;;11.73;76.68;100011.46;89418;1260;99160;-60
2022/09/12 00:07:38;;;;;;;;;;;;;;;11.67;76.85;100015.96;89413;1260;88226;-59
2022/09/12 00:09:47;;;;;;;;;;;;;;;11.60;76.89;100015.23;89425;1260;95594;-60
2022/09/12 00:11:55;;;;;;;;;;;;;;;11.56;76.99;100012.20;89425;1260;80205;-61
2022/09/12 00:14:03;;;;;;;;;;;;;;;11.51;77.15;100014.35;89428;1261;82960;-59
2022/09/12 00:16:19;;;;;;;;;;;;;;;11.46;77.14;100014.66;89487;1260;98232;-58
2022/09/12 00:18:27;;;;;;;;;;;;;;;11.42;77.19;100012.44;89508;1260;86867;-59
2022/09/12 00:20:34;;;;;;;;;;;;;;;11.38;77.31;100013.19;89404;1260;94482;-59
2022/09/12 00:22:42;;;;;;;;;;;;;;;11.31;77.41;100011.26;89486;1260;79938;-61
2022/09/12 00:24:52;;;;;;;;;;;;;;;11.30;77.50;100010.70;89464;1260;82699;-60
2022/09/12 00:26:59;;;;;;;;;;;;;;;11.29;77.65;100007.25;89414;1260;98457;-61
2022/09/12 00:29:06;;;;;;;;;;;;;;;11.25;77.71;100012.48;89472;1260;89497;-57
2022/09/12 00:31:16;;;;;;;;;;;;;;;11.23;77.74;100011.02;89390;1260;95531;-57
2022/09/12 00:33:23;;;;;;;;;;;;;;;11.19;77.88;100009.18;89419;1260;80663;-58
2022/09/12 00:35:30;;;;;;;;;;;;;;;11.20;77.98;100007.68;89389;1260;81243;-61
2022/09/12 00:37:37;;;;;;;;;;;;;;;11.17;78.04;100010.02;89339;1260;99931;-61
2022/09/12 00:39:45;;;;;;;;;;;;;;;11.16;78.15;100009.08;89390;1260;88188;-61
2022/09/12 00:41:52;;;;;;;;;;;;;;;11.17;78.25;100007.71;89405;1260;94900;-61
2022/09/12 00:44:01;;;;;;;;;;;;;;;11.20;78.38;100005.14;89384;1260;81067;-59
2022/09/12 00:46:14;;;;;;;;;;;;;;;11.19;78.39;100007.22;89393;1260;82279;-60
2022/09/12 00:48:28;;;;;;;;;;;;;;;11.21;78.49;100006.20;89371;1261;99483;-60
2022/09/12 00:50:36;;;;;;;;;;;;;;;11.24;78.59;100011.98;89381;1260;89496;-59
2022/09/12 00:52:47;;;;;;;;;;;;;;;11.26;78.78;100009.88;89351;1260;93611;-59
2022/09/12 00:54:57;;;;;;;;;;;;;;;11.31;78.68;100012.55;89387;1260;82260;-59
2022/09/12 00:57:07;;;;;;;;;;;;;;;11.34;78.75;100013.05;89412;1260;82193;-59
2022/09/12 00:59:20;;;;;;;;;;;;;;;11.34;78.79;100013.27;89452;1261;99051;-58
2022/09/12 01:01:29;;;;;;;;;;;;;;;11.33;78.88;100011.50;89383;1260;87843;-59
2022/09/12 01:03:37;;;;;;;;;;;;;;;11.33;78.79;100014.00;89403;1260;95228;-60
2022/09/12 01:05:48;;;;;;;;;;;;;;;11.32;78.84;100018.59;89314;1262;80758;-59
2022/09/12 01:07:57;;;;;;;;;;;;;;;11.28;78.90;100019.61;89431;1261;82591;-59
2022/09/12 01:10:06;;;;;;;;;;;;;;;11.29;78.93;100019.14;89389;1260;98244;-60
2022/09/12 01:12:14;;;;;;;;;;;;;;;11.25;78.93;100020.27;89452;1261;86262;-61
2022/09/12 01:14:21;;;;;;;;;;;;;;;11.21;78.95;100023.84;89407;1260;95041;-60
2022/09/12 01:16:29;;;;;;;;;;;;;;;11.20;78.93;100029.44;89366;1260;82254;-59
2022/09/12 01:18:44;;;;;;;;;;;;;;;11.21;79.06;100024.79;89345;1260;82493;-57
2022/09/12 01:21:03;;;;;;;;;;;;;;;11.27;79.04;100028.05;89388;1260;97590;-57
2022/09/12 01:23:28;;;;;;;;;;;;;;;11.25;79.04;100029.88;89378;1261;88350;-57
2022/09/12 01:25:43;;;;;;;;;;;;;;;11.23;79.12;100035.90;89385;1260;94807;-59
2022/09/12 01:28:02;;;;;;;;;;;;;;;11.24;79.13;100038.84;89291;1260;84153;-58
2022/09/12 01:30:25;;;;;;;;;;;;;;;11.28;79.18;100030.46;89422;1261;81721;-59
2022/09/12 01:32:41;;;;;;;;;;;;;;;11.30;79.22;100033.18;89376;1260;99104;-59
2022/09/12 01:34:53;;;;;;;;;;;;;;;11.34;79.23;100030.56;89438;1261;87503;-57
2022/09/12 01:37:08;;;;;;;;;;;;;;;11.32;79.23;100030.19;89379;1260;95308;-58
2022/09/12 01:39:26;;;;;;;;;;;;;;;11.34;79.15;100030.48;89425;1260;82042;-58
2022/09/12 01:41:42;;;;;;;;;;;;;;;11.40;79.24;100030.63;89425;1260;82193;-59
2022/09/12 01:43:52;;;;;;;;;;;;;;;11.38;79.31;100031.79;89468;1260;99457;-57
2022/09/12 01:46:03;;;;;;;;;;;;;;;11.39;79.20;100030.34;89447;1260;89824;-57
2022/09/12 01:48:16;;;;;;;;;;;;;;;11.38;79.20;100031.41;89405;1260;93103;-58
2022/09/12 01:50:32;;;;;;;;;;;;;;;11.38;79.24;100035.73;89403;1261;81933;-58
2022/09/12 01:52:43;;;;;;;;;;;;;;;11.42;79.22;100037.58;89429;1261;81908;-57
2022/09/12 01:54:56;;;;;;;;;;;;;;;11.40;79.16;100040.36;89391;1260;99032;-59
2022/09/12 01:57:10;;;;;;;;;;;;;;;11.42;79.25;100040.00;89370;1260;88268;-59
2022/09/12 01:59:22;;;;;;;;;;;;;;;11.46;79.19;100041.17;89376;1260;94717;-57
2022/09/12 02:01:32;;;;;;;;;;;;;;;11.43;79.35;100040.49;89331;1261;80906;-57
2022/09/12 02:03:44;;;;;;;;;;;;;;;11.44;79.31;100042.09;89379;1261;82382;-59
2022/09/12 02:05:54;;;;;;;;;;;;;;;11.40;79.36;100046.86;89335;1260;99848;-61
2022/09/12 02:08:06;;;;;;;;;;;;;;;11.40;79.45;100041.48;89393;1260;87983;-61
2022/09/12 02:10:16;;;;;;;;;;;;;;;11.39;79.50;100037.23;89390;1260;92936;-59
2022/09/12 02:12:27;;;;;;;;;;;;;;;11.42;79.40;100041.66;89352;1260;82184;-59
2022/09/12 02:14:40;;;;;;;;;;;;;;;11.46;79.41;100038.50;89413;1260;81276;-57
2022/09/12 02:16:51;;;;;;;;;;;;;;;11.47;79.35;100037.98;89410;1260;99071;-57
2022/09/12 02:19:03;;;;;;;;;;;;;;;11.47;79.38;100039.85;89276;1262;86961;-61
2022/09/12 02:21:10;;;;;;;;;;;;;;;11.44;79.41;100042.50;89391;1260;96002;-60
2022/09/12 02:23:22;;;;;;;;;;;;;;;11.47;79.36;100040.27;89406;1260;81314;-61
2022/09/12 02:25:29;;;;;;;;;;;;;;;11.49;79.37;100043.14;89421;1260;82117;-60
2022/09/12 02:27:39;;;;;;;;;;;;;;;11.52;79.23;100046.40;89271;1262;99680;-60
2022/09/12 02:29:46;;;;;;;;;;;;;;;11.53;79.36;100048.02;89424;1260;87712;-58
2022/09/12 02:31:57;;;;;;;;;;;;;;;11.58;79.24;100048.20;89376;1261;95116;-57
2022/09/12 02:34:17;;;;;;;;;;;;;;;11.58;79.14;100052.48;89369;1260;82122;-57
2022/09/12 02:36:33;;;;;;;;;;;;;;;11.56;79.17;100049.33;88984;1261;549042;-57
2022/09/12 02:38:44;;;;;;;;;;;;;;;11.55;79.24;100051.77;89365;1260;100042;-59
2022/09/12 02:40:51;;;;;;;;;;;;;;;11.56;79.27;100047.77;89361;1260;89526;-60
2022/09/12 02:42:59;;;;;;;;;;;;;;;11.52;79.24;100051.96;89399;1261;95422;-60
2022/09/12 02:45:09;;;;;;;;;;;;;;;11.52;79.30;100053.39;89363;1261;82560;-58
2022/09/12 02:47:20;;;;;;;;;;;;;;;11.53;79.24;100057.84;89346;1260;81541;-57
2022/09/12 02:49:27;;;;;;;;;;;;;;;11.54;79.29;100058.47;89363;1261;97967;-60
2022/09/12 02:51:35;;;;;;;;;;;;;;;11.51;79.39;100058.88;89380;1261;88933;-59
2022/09/12 02:53:42;;;;;;;;;;;;;;;11.50;79.48;100058.61;89365;1261;94746;-60
2022/09/12 02:55:50;;;;;;;;;;;;;;;11.46;79.57;100064.81;89385;1261;80107;-60
2022/09/12 02:57:57;;;;;;;;;;;;;;;11.44;79.52;100070.80;89347;1261;81547;-61
2022/09/12 03:00:05;;;;;;;;;;;;;;;11.46;79.57;100065.52;89380;1260;100296;-57
2022/09/12 03:02:24;;;;;;;;;;;;;;;11.41;79.58;100067.38;89386;1261;87967;-57
2022/09/12 03:04:48;;;;;;;;;;;;;;;11.38;79.72;100071.14;89423;1261;95493;-58
2022/09/12 03:07:01;;;;;;;;;;;;;;;11.37;79.83;100066.73;89402;1261;80928;-58
2022/09/12 03:09:14;;;;;;;;;;;;;;;11.42;79.80;100063.63;89454;1261;82736;-57
2022/09/12 03:11:43;;;;;;;;;;;;;;;11.44;79.83;100065.73;89419;1261;99776;-58
2022/09/12 03:13:57;;;;;;;;;;;;;;;11.39;79.91;100066.91;89462;1261;88595;-57
2022/09/12 03:16:12;;;;;;;;;;;;;;;11.40;79.82;100070.66;89417;1262;94647;-57
2022/09/12 03:18:32;;;;;;;;;;;;;;;11.40;79.98;100074.33;89276;1262;84123;-57
2022/09/12 03:20:50;;;;;;;;;;;;;;;11.40;80.06;100073.91;89384;1261;81097;-60
2022/09/12 03:23:00;;;;;;;;;;;;;;;11.42;79.96;100072.16;89412;1260;97292;-60
2022/09/12 03:25:15;;;;;;;;;;;;;;;11.40;80.05;100076.36;89373;1261;88943;-57
2022/09/12 03:27:29;;;;;;;;;;;;;;;11.38;80.10;100079.71;89351;1260;94985;-57
2022/09/12 03:29:37;;;;;;;;;;;;;;;11.41;80.14;100079.02;89381;1262;81952;-59
2022/09/12 03:31:52;;;;;;;;;;;;;;;11.42;80.06;100083.52;89365;1261;82228;-59
2022/09/12 03:34:00;;;;;;;;;;;;;;;11.40;80.10;100086.35;89367;1260;100088;-59
2022/09/12 03:36:14;;;;;;;;;;;;;;;11.36;80.26;100088.48;89361;1261;88452;-58
2022/09/12 03:38:21;;;;;;;;;;;;;;;11.39;80.16;100092.79;89351;1262;94178;-58
2022/09/12 03:40:29;;;;;;;;;;;;;;;11.39;80.27;100094.78;89345;1262;82403;-57
2022/09/12 03:42:36;;;;;;;;;;;;;;;11.41;80.30;100094.66;89372;1261;83166;-57
2022/09/12 03:44:43;;;;;;;;;;;;;;;11.39;80.27;100095.08;89361;1261;99802;-58
2022/09/12 03:46:52;;;;;;;;;;;;;;;11.38;80.33;100098.32;89335;1262;88143;-58
2022/09/12 03:48:59;;;;;;;;;;;;;;;11.33;80.33;100098.62;89369;1260;95616;-59
2022/09/12 03:51:08;;;;;;;;;;;;;;;11.32;80.41;100098.42;89391;1261;82092;-60
2022/09/12 03:53:15;;;;;;;;;;;;;;;11.35;80.43;100097.05;89392;1262;81647;-60
2022/09/12 03:55:23;;;;;;;;;;;;;;;11.35;80.45;100095.48;89420;1261;97915;-57
2022/09/12 03:57:30;;;;;;;;;;;;;;;11.39;80.41;100097.83;89403;1261;88925;-57
2022/09/12 03:59:38;;;;;;;;;;;;;;;11.38;80.38;100097.98;89358;1262;93488;-59
2022/09/12 04:01:45;;;;;;;;;;;;;;;11.39;80.39;100099.98;89400;1261;82189;-58
2022/09/12 04:03:58;;;;;;;;;;;;;;;11.37;80.45;100101.27;89380;1262;80383;-58
2022/09/12 04:06:10;;;;;;;;;;;;;;;11.37;80.55;100102.77;89358;1261;99465;-59
2022/09/12 04:08:23;;;;;;;;;;;;;;;11.35;80.51;100106.25;89391;1260;89668;-58
2022/09/12 04:10:30;;;;;;;;;;;;;;;11.34;80.52;100104.83;89362;1261;93623;-60
2022/09/12 04:12:38;;;;;;;;;;;;;;;11.37;80.53;100109.89;89383;1261;81695;-60
2022/09/12 04:14:46;;;;;;;;;;;;;;;11.35;80.57;100111.36;89432;1260;82295;-59
2022/09/12 04:16:54;;;;;;;;;;;;;;;11.34;80.68;100107.49;89393;1261;98059;-59
2022/09/12 04:19:03;;;;;;;;;;;;;;;11.31;80.73;100105.20;89301;1262;88591;-57
2022/09/12 04:21:12;;;;;;;;;;;;;;;11.24;80.92;100104.95;89354;1261;94691;-56
2022/09/12 04:23:21;;;;;;;;;;;;;;;11.26;80.99;100108.12;89361;1260;81896;-57
2022/09/12 04:25:30;;;;;;;;;;;;;;;11.22;80.99;100113.92;89373;1261;82535;-58
2022/09/12 04:27:37;;;;;;;;;;;;;;;11.21;81.12;100120.88;89357;1261;97783;-58
2022/09/12 04:29:44;;;;;;;;;;;;;;;11.17;81.21;100122.43;89422;1260;88931;-59
2022/09/12 04:31:51;;;;;;;;;;;;;;;11.19;81.33;100124.19;89374;1261;95646;-58
2022/09/12 04:34:01;;;;;;;;;;;;;;;11.19;81.35;100130.10;89381;1262;81365;-60
2022/09/12 04:36:13;;;;;;;;;;;;;;;11.20;81.45;100122.28;89418;1262;80800;-59
2022/09/12 04:38:21;;;;;;;;;;;;;;;11.21;81.43;100121.41;89316;1262;100696;-57
2022/09/12 04:40:29;;;;;;;;;;;;;;;11.22;81.54;100120.92;89427;1261;88872;-57
2022/09/12 04:42:37;;;;;;;;;;;;;;;11.21;81.34;100122.87;89421;1261;94315;-57
2022/09/12 04:44:46;;;;;;;;;;;;;;;11.16;81.41;100124.79;89384;1262;81200;-57
2022/09/12 04:46:53;;;;;;;;;;;;;;;11.20;81.44;100126.23;89416;1260;80711;-56
2022/09/12 04:49:00;;;;;;;;;;;;;;;11.18;81.51;100123.81;89454;1260;97261;-57
2022/09/12 04:51:12;;;;;;;;;;;;;;;11.17;81.39;100126.60;89362;1261;89449;-56
2022/09/12 04:53:20;;;;;;;;;;;;;;;11.16;81.51;100133.81;89404;1261;96332;-61
2022/09/12 04:55:27;;;;;;;;;;;;;;;11.16;81.59;100133.06;89379;1261;82510;-58
2022/09/12 04:57:34;;;;;;;;;;;;;;;11.17;81.58;100136.70;89359;1261;83069;-58
2022/09/12 04:59:42;;;;;;;;;;;;;;;11.19;81.59;100140.41;89395;1261;99611;-57
2022/09/12 05:01:49;;;;;;;;;;;;;;;11.20;81.56;100138.33;89383;1261;89683;-58
2022/09/12 05:03:56;;;;;;;;;;;;;;;11.18;81.69;100140.36;89388;1261;95616;-58
2022/09/12 05:06:06;;;;;;;;;;;;;;;11.13;81.67;100139.55;89365;1260;82299;-58
2022/09/12 05:08:13;;;;;;;;;;;;;;;11.13;81.71;100139.99;89404;1261;82549;-57
2022/09/12 05:10:22;;;;;;;;;;;;;;;11.10;81.76;100138.86;89374;1260;98812;-58
2022/09/12 05:12:33;;;;;;;;;;;;;;;11.15;81.72;100146.91;89404;1262;88385;-59
2022/09/12 05:14:40;;;;;;;;;;;;;;;11.16;81.75;100149.06;89375;1261;94805;-57
2022/09/12 05:16:46;;;;;;;;;;;;;;;11.12;81.75;100146.44;89377;1261;82820;-57
2022/09/12 05:18:58;;;;;;;;;;;;;;;11.15;81.78;100153.79;89393;1261;82306;-60
2022/09/12 05:21:09;;;;;;;;;;;;;;;11.14;81.88;100153.94;89396;1261;99301;-59
2022/09/12 05:23:17;;;;;;;;;;;;;;;11.15;81.91;100154.56;89415;1260;87233;-59
2022/09/12 05:25:25;;;;;;;;;;;;;;;11.16;81.96;100159.02;89388;1263;94093;-58
2022/09/12 05:27:32;;;;;;;;;;;;;;;11.20;81.93;100155.77;89401;1261;82650;-60
2022/09/12 05:29:39;;;;;;;;;;;;;;;11.24;81.91;100157.64;89397;1261;80338;-58
2022/09/12 05:31:48;;;;;;;;;;;;;;;11.25;81.99;100155.83;89386;1261;99262;-59
2022/09/12 05:33:56;;;;;;;;;;;;;;;11.28;81.91;100157.98;89382;1262;88994;-57
2022/09/12 05:36:05;;;;;;;;;;;;;;;11.24;81.99;100153.46;89377;1260;94837;-57
2022/09/12 05:38:12;;;;;;;;;;;;;;;11.24;81.98;100154.80;89392;1261;79636;-56
2022/09/12 05:40:20;;;;;;;;;;;;;;;11.23;82.01;100157.99;89393;1260;79831;-61
2022/09/12 05:42:29;;;;;;;;;;;;;;;11.23;81.94;100159.45;89389;1261;98482;-61
2022/09/12 05:44:36;;;;;;;;;;;;;;;11.25;82.14;100159.30;89401;1261;89117;-61
2022/09/12 05:46:47;;;;;;;;;;;;;;;11.32;82.12;100163.98;89368;1261;93415;-60
2022/09/12 05:48:57;;;;;;;;;;;;;;;11.37;82.20;100167.67;89406;1261;80565;-59
2022/09/12 05:51:08;;;;;;;;;;;;;;;11.39;82.18;100168.48;89411;1260;80710;-58
2022/09/12 05:53:15;;;;;;;;;;;;;;;11.39;82.17;100167.64;89358;1261;97081;-58
2022/09/12 05:55:23;;;;;;;;;;;;;;;11.40;82.15;100169.48;89377;1261;88874;-59
2022/09/12 05:57:30;;;;;;;;;;;;;;;11.44;82.21;100168.03;89275;1262;96511;-58
2022/09/12 05:59:38;;;;;;;;;;;;;;;11.48;82.24;100170.67;89400;1260;81110;-59
2022/09/12 06:01:47;;;;;;;;;;;;;;;11.49;82.38;100169.27;89294;1262;81098;-59
2022/09/12 06:03:59;;;;;;;;;;;;;;;11.52;82.43;100169.29;89446;1261;98671;-60
2022/09/12 06:06:08;;;;;;;;;;;;;;;11.51;82.44;100169.41;89421;1253;87424;-62
2022/09/12 06:08:15;;;;;;;;;;;;;;;11.56;82.43;100163.56;89380;1262;94825;-62
2022/09/12 06:10:23;;;;;;;;;;;;;;;11.60;82.51;100165.33;89411;1261;79411;-60
2022/09/12 06:12:33;;;;;;;;;;;;;;;11.66;82.57;100165.06;89403;1261;80759;-60
2022/09/12 06:14:42;;;;;;;;;;;;;;;11.73;82.49;100166.08;89419;1261;98340;-62
2022/09/12 06:16:50;;;;;;;;;;;;;;;11.75;82.40;100163.76;89443;1260;89570;-61
2022/09/12 06:18:58;;;;;;;;;;;;;;;11.68;82.40;100165.46;89448;1261;94290;-60
2022/09/12 06:21:09;;;;;;;;;;;;;;;11.70;82.55;100163.66;89374;1262;80622;-59
2022/09/12 06:23:16;;;;;;;;;;;;;;;11.75;82.68;100166.59;89436;1261;80631;-61
2022/09/12 06:25:26;;;;;;;;;;;;;;;11.77;82.70;100167.19;89404;1261;96926;-58
2022/09/12 06:27:35;;;;;;;;;;;;;;;11.79;82.80;100168.35;89392;1261;89533;-59
2022/09/12 06:29:42;;;;;;;;;;;;;;;11.83;82.88;100167.50;89258;1262;94963;-62
2022/09/12 06:31:51;;;;;;;;;;;;;;;11.88;82.87;100169.59;89373;1261;81437;-61
2022/09/12 06:34:02;;;;;;;;;;;;;;;11.93;82.88;100165.81;89402;1261;80178;-60
2022/09/12 06:36:13;;;;;;;;;;;;;;;12.00;82.83;100173.51;89385;1262;98107;-59
2022/09/12 06:38:22;;;;;;;;;;;;;;;12.02;82.86;100174.34;89423;1261;87217;-59
2022/09/12 06:40:29;;;;;;;;;;;;;;;12.05;82.92;100177.02;89429;1260;94880;-60
2022/09/12 06:42:37;;;;;;;;;;;;;;;12.11;82.82;100176.20;89426;1261;80291;-59
2022/09/12 06:44:45;;;;;;;;;;;;;;;12.14;82.84;100178.25;89455;1260;82581;-59
2022/09/12 06:46:53;;;;;;;;;;;;;;;12.18;82.90;100177.88;89448;1261;99079;-59
2022/09/12 06:49:02;;;;;;;;;;;;;;;12.24;83.01;100180.77;89483;1261;88242;-59
2022/09/12 06:51:13;;;;;;;;;;;;;;;12.25;83.15;100180.35;89421;1261;95001;-58
2022/09/12 06:53:21;;;;;;;;;;;;;;;12.31;83.08;100178.45;89491;1261;79625;-59
2022/09/12 06:55:28;;;;;;;;;;;;;;;12.38;83.17;100177.42;89433;1261;81517;-59
2022/09/12 06:57:37;;;;;;;;;;;;;;;12.37;83.23;100178.17;89368;1260;98929;-60
2022/09/12 06:59:44;;;;;;;;;;;;;;;12.45;83.14;100176.80;89446;1261;88203;-59
2022/09/12 07:01:51;;;;;;;;;;;;;;;12.56;83.14;100175.98;89414;1261;94558;-61
2022/09/12 07:04:03;;;;;;;;;;;;;;;12.60;83.07;100172.73;89412;1261;79868;-60
2022/09/12 07:06:14;;;;;;;;;;;;;;;12.73;83.06;100175.73;89430;1260;83123;-59
2022/09/12 07:08:22;;;;;;;;;;;;;;;12.86;83.14;100174.22;89352;1261;99730;-59
2022/09/12 07:10:29;;;;;;;;;;;;;;;12.97;82.92;100179.05;89386;1260;88605;-60
2022/09/12 07:12:38;;;;;;;;;;;;;;;13.04;83.00;100178.02;89381;1261;95681;-60
2022/09/12 07:14:45;;;;;;;;;;;;;;;13.13;82.74;100182.66;89372;1263;81829;-60
2022/09/12 07:16:52;;;;;;;;;;;;;;;13.13;82.91;100184.95;89420;1261;83042;-60
2022/09/12 07:19:01;;;;;;;;;;;;;;;13.10;82.67;100180.08;89389;1261;98278;-59
2022/09/12 07:21:11;;;;;;;;;;;;;;;13.09;82.24;100185.29;89430;1260;87420;-59
2022/09/12 07:23:22;;;;;;;;;;;;;;;12.96;82.41;100190.41;89390;1260;94040;-58
2022/09/12 07:25:29;;;;;;;;;;;;;;;12.86;82.58;100196.74;89439;1260;80245;-59
2022/09/12 07:27:36;;;;;;;;;;;;;;;12.82;82.71;100197.95;89469;1260;81550;-60
2022/09/12 07:29:47;;;;;;;;;;;;;;;12.79;82.63;100195.50;89438;1261;99542;-59
2022/09/12 07:31:54;;;;;;;;;;;;;;;12.85;82.53;100196.92;89423;1261;88764;-58
2022/09/12 07:34:05;;;;;;;;;;;;;;;12.92;82.50;100199.05;89434;1260;95634;-61
2022/09/12 07:36:13;;;;;;;;;;;;;;;12.89;82.46;100203.42;89444;1260;80899;-59
2022/09/12 07:38:21;;;;;;;;;;;;;;;12.74;82.53;100210.80;89473;1260;81419;-60
2022/09/12 07:40:28;;;;;;;;;;;;;;;12.70;82.54;100212.80;89465;1261;98409;-59
2022/09/12 07:42:36;;;;;;;;;;;;;;;12.82;82.56;100216.23;89477;1260;87162;-59
2022/09/12 07:44:43;;;;;;;;;;;;;;;12.86;82.66;100217.23;89465;1261;94488;-57
2022/09/12 07:46:51;;;;;;;;;;;;;;;12.91;82.59;100219.95;89410;1262;82501;-59
2022/09/12 07:49:00;;;;;;;;;;;;;;;12.96;82.60;100224.33;89447;1261;80278;-58
2022/09/12 07:51:09;;;;;;;;;;;;;;;12.94;82.57;100229.70;89422;1260;99478;-58
2022/09/12 07:53:17;;;;;;;;;;;;;;;12.99;82.55;100228.41;89443;1261;88988;-58
2022/09/12 07:55:25;;;;;;;;;;;;;;;13.05;82.57;100226.96;89421;1263;94918;-58
2022/09/12 07:57:32;;;;;;;;;;;;;;;13.10;82.57;100228.10;89389;1263;81584;-58
2022/09/12 07:59:42;;;;;;;;;;;;;;;13.11;82.53;100229.90;89576;1253;83045;-59
2022/09/12 08:01:51;;;;;;;;;;;;;;;13.16;82.33;100223.42;89385;1260;99545;-59
2022/09/12 08:03:59;;;;;;;;;;;;;;;13.20;82.14;100229.90;89444;1260;87783;-60
2022/09/12 08:06:11;;;;;;;;;;;;;;;13.22;82.24;100226.16;89408;1261;94598;-58
2022/09/12 08:08:19;;;;;;;;;;;;;;;13.25;82.14;100225.74;89415;1260;80980;-58
2022/09/12 08:10:26;;;;;;;;;;;;;;;13.22;82.13;100233.89;89134;1264;81943;-59
2022/09/12 08:12:33;;;;;;;;;;;;;;;13.19;82.21;100232.05;89417;1261;99824;-58
2022/09/12 08:14:44;;;;;;;;;;;;;;;13.22;82.22;100235.52;89449;1260;87289;-58
2022/09/12 08:16:52;;;;;;;;;;;;;;;13.24;82.21;100237.27;89461;1260;95243;-59
2022/09/12 08:19:04;;;;;;;;;;;;;;;13.32;82.31;100238.39;89489;1262;80281;-60
2022/09/12 08:21:13;;;;;;;;;;;;;;;13.26;82.23;100235.80;89513;1261;82178;-60
2022/09/12 08:23:23;;;;;;;;;;;;;;;13.29;82.09;100236.52;89477;1260;99633;-58
2022/09/12 08:25:33;;;;;;;;;;;;;;;13.24;82.12;100237.48;89470;1260;89239;-59
2022/09/12 08:27:40;;;;;;;;;;;;;;;13.25;82.35;100238.31;89450;1261;95155;-60
2022/09/12 08:29:50;;;;;;;;;;;;;;;13.34;82.12;100239.88;89459;1261;80257;-58
2022/09/12 08:32:01;;;;;;;;;;;;;;;13.37;82.15;100237.78;89426;1262;82936;-58
2022/09/12 08:34:08;;;;;;;;;;;;;;;13.37;82.05;100237.83;89476;1261;98229;-59
2022/09/12 08:36:16;;;;;;;;;;;;;;;13.38;82.07;100238.20;89429;1260;88891;-59
2022/09/12 08:38:24;;;;;;;;;;;;;;;13.46;82.12;100237.32;89419;1260;95382;-59
2022/09/12 08:40:34;;;;;;;;;;;;;;;13.53;82.24;100239.39;89402;1261;80737;-59
2022/09/12 08:42:53;;;;;;;;;;;;;;;13.59;82.13;100238.67;89467;1261;82632;-59
2022/09/12 08:45:08;;;;;;;;;;;;;;;13.57;82.01;100233.11;89461;1260;100764;-58
2022/09/12 08:47:26;;;;;;;;;;;;;;;13.61;82.15;100234.57;89421;1262;88943;-58
2022/09/12 08:49:48;;;;;;;;;;;;;;;13.70;81.88;100237.26;89382;1260;94363;-60
2022/09/12 08:51:56;;;;;;;;;;;;;;;13.69;81.89;100237.39;89405;1260;80494;-58
2022/09/12 08:54:05;;;;;;;;;;;;;;;13.71;81.87;100237.70;89471;1261;82222;-59
2022/09/12 08:56:15;;;;;;;;;;;;;;;13.75;81.82;100239.34;89421;1261;100237;-59
2022/09/12 08:58:26;;;;;;;;;;;;;;;13.81;82.06;100241.27;89444;1260;88591;-59
2022/09/12 09:00:40;;;;;;;;;;;;;;;13.88;81.98;100242.88;89444;1262;95461;-59
2022/09/12 09:03:05;;;;;;;;;;;;;;;13.89;81.82;100242.04;89425;1261;81217;-59
2022/09/12 09:05:30;;;;;;;;;;;;;;;13.91;81.88;100243.70;89472;1261;81442;-59
2022/09/12 09:07:53;;;;;;;;;;;;;;;13.91;81.95;100244.79;89186;1264;101440;-59
2022/09/12 09:10:16;;;;;;;;;;;;;;;13.95;81.91;100241.34;89467;1263;88913;-59
2022/09/12 09:12:29;;;;;;;;;;;;;;;14.00;81.92;100241.91;89445;1260;95709;-58
2022/09/12 09:15:08;;;;;;;;;;;;;;;14.01;81.83;100242.45;89483;1261;81839;-59
2022/09/12 09:17:20;;;;;;;;;;;;;;;14.05;81.70;100242.98;89478;1261;82895;-60
2022/09/12 09:19:32;;;;;;;;;;;;;;;13.96;81.75;100244.65;89517;1261;98109;-59
2022/09/12 09:21:49;;;;;;;;;;;;;;;13.93;81.61;100249.38;89458;1266;87362;-59
2022/09/12 09:24:02;;;;;;;;;;;;;;;13.89;81.60;100249.61;89417;1266;95343;-59
2022/09/12 09:26:13;;;;;;;;;;;;;;;13.83;81.68;100252.26;89435;1261;81675;-60
2022/09/12 09:28:26;;;;;;;;;;;;;;;13.91;81.70;100247.52;89445;1261;82525;-59
2022/09/12 09:30:35;;;;;;;;;;;;;;;14.05;81.71;100247.33;89398;1263;98881;-59
2022/09/12 09:32:45;;;;;;;;;;;;;;;14.15;81.66;100250.05;89443;1261;87713;-60
2022/09/12 09:34:54;;;;;;;;;;;;;;;14.28;81.68;100251.85;89419;1261;95161;-58
2022/09/12 09:37:07;;;;;;;;;;;;;;;14.33;81.59;100253.79;89444;1260;81639;-58
2022/09/12 09:39:36;;;;;;;;;;;;;;;14.34;81.46;100250.73;89412;1261;82149;-59
2022/09/12 09:41:53;;;;;;;;;;;;;;;14.45;81.18;100255.69;89397;1261;99566;-59
2022/09/12 09:44:01;;;;;;;;;;;;;;;14.52;81.13;100254.94;89445;1261;89122;-59
2022/09/12 09:46:12;;;;;;;;;;;;;;;14.44;80.94;100256.57;89463;1261;94971;-59
2022/09/12 09:48:30;;;;;;;;;;;;;;;14.45;80.70;100260.45;89458;1261;79137;-59
2022/09/12 09:50:38;;;;;;;;;;;;;;;14.44;80.78;100262.04;89474;1261;82285;-58
2022/09/12 09:52:46;;;;;;;;;;;;;;;14.41;80.53;100261.02;89468;1261;100419;-59
2022/09/12 09:54:57;;;;;;;;;;;;;;;14.40;80.62;100265.20;89481;1261;87505;-59
2022/09/12 09:57:26;;;;;;;;;;;;;;;14.38;80.69;100265.02;89444;1261;95433;-59
2022/09/12 09:59:34;;;;;;;;;;;;;;;14.32;80.63;100263.39;89472;1261;80221;-59
2022/09/12 10:01:48;;;;;;;;;;;;;;;14.31;80.63;100267.52;89523;1263;81578;-60
2022/09/12 10:03:56;;;;;;;;;;;;;;;14.33;80.46;100267.63;89295;1263;99457;-58
2022/09/12 10:06:24;;;;;;;;;;;;;;;14.35;80.51;100270.54;89462;1260;87622;-59
2022/09/12 10:08:34;;;;;;;;;;;;;;;14.32;80.55;100274.23;89463;1260;93950;-58
2022/09/12 10:10:52;;;;;;;;;;;;;;;14.32;80.28;100272.30;89403;1260;80166;-59
2022/09/12 10:13:29;;;;;;;;;;;;;;;14.22;80.21;100277.52;89467;1260;80202;-56
2022/09/12 10:15:37;;;;;;;;;;;;;;;14.12;80.22;100280.14;89177;1262;98082;-57
2022/09/12 10:17:47;;;;;;;;;;;;;;;14.06;80.14;100278.78;89456;1261;89871;-58
2022/09/12 10:19:55;;;;;;;;;;;;;;;14.01;80.31;100283.77;89143;1263;97326;-59
2022/09/12 10:22:03;;;;;;;;;;;;;;;14.01;80.41;100286.77;89412;1260;80640;-59
2022/09/12 10:24:22;;;;;;;;;;;;;;;14.02;80.38;100287.95;89467;1260;82878;-58
2022/09/12 10:26:32;;;;;;;;;;;;;;;14.07;80.45;100287.19;89464;1261;99823;-58
2022/09/12 10:28:40;;;;;;;;;;;;;;;14.09;80.45;100289.36;89441;1260;88912;-59
2022/09/12 10:30:55;;;;;;;;;;;;;;;14.10;80.49;100289.55;89419;1260;93098;-58
2022/09/12 10:33:12;;;;;;;;;;;;;;;14.16;80.52;100292.04;89431;1261;81703;-58
2022/09/12 10:35:24;;;;;;;;;;;;;;;14.25;80.55;100292.29;88837;1260;893145;-58
2022/09/12 10:37:34;;;;;;;;;;;;;;;14.24;80.67;100295.48;89459;1261;100719;-58
2022/09/12 10:39:51;;;;;;;;;;;;;;;14.26;80.56;100298.64;89547;1260;87945;-58
2022/09/12 10:41:58;;;;;;;;;;;;;;;14.31;80.47;100297.71;89481;1260;94682;-57
2022/09/12 10:44:15;;;;;;;;;;;;;;;14.33;80.57;100301.36;89494;1261;81327;-58
2022/09/12 10:46:31;;;;;;;;;;;;;;;14.33;80.57;100301.48;89471;1260;82350;-58
2022/09/12 10:48:41;;;;;;;;;;;;;;;14.31;80.51;100302.07;89447;1260;98230;-58
2022/09/12 10:50:49;;;;;;;;;;;;;;;14.34;80.39;100303.20;89502;1260;86355;-58
2022/09/12 10:53:13;;;;;;;;;;;;;;;14.37;80.38;100302.77;89453;1261;95625;-60
2022/09/12 10:55:28;;;;;;;;;;;;;;;14.31;80.27;100302.14;89105;1262;79883;-59
2022/09/12 10:58:01;;;;;;;;;;;;;;;14.28;80.22;100306.66;89435;1260;81645;-59
2022/09/12 11:00:26;;;;;;;;;;;;;;;14.39;80.15;100305.19;89422;1260;99757;-58
2022/09/12 11:02:51;;;;;;;;;;;;;;;14.53;80.27;100310.13;89435;1260;87549;-58
2022/09/12 11:05:04;;;;;;;;;;;;;;;14.69;80.19;100311.55;89448;1260;95304;-56
2022/09/12 11:07:32;;;;;;;;;;;;;;;14.78;79.97;100310.23;89462;1260;79036;-56
2022/09/12 11:09:46;;;;;;;;;;;;;;;14.78;79.77;100314.21;89453;1261;83310;-56
2022/09/12 11:12:06;;;;;;;;;;;;;;;14.85;79.86;100315.17;89108;1262;99894;-57